Time;durP1;ratioP1;P1;durP2;ratioP2;P2;SDS_P1;SDS_P2;PMS_P1;PMS_P2;Temp;Humidity;BMP_temperature;BMP_pressure;BME280_temperature;BME280_humidity;BME280_pressure;Samples;Min_cycle;Max_cycle;Signal;HPM_P1;HPM_P2
2023/12/06 00:02:22;;;;;;;2.57;0.90;;;5.40;99.90;;;;;;5083752;28;20062;-90
2023/12/06 00:04:48;;;;;;;1.83;1.00;;;5.40;99.90;;;;;;5095979;28;20035;-90
2023/12/06 00:07:13;;;;;;;2.10;1.37;;;5.40;99.90;;;;;;5096657;28;20070;-92
2023/12/06 00:09:39;;;;;;;1.17;1.00;;;5.40;99.90;;;;;;5095816;28;20028;-89
2023/12/06 00:12:05;;;;;;;2.13;1.30;;;5.40;99.90;;;;;;5095994;28;20055;-91
2023/12/06 00:14:30;;;;;;;1.87;1.30;;;5.40;99.90;;;;;;5079056;28;20028;-88
2023/12/06 00:16:56;;;;;;;1.30;1.10;;;5.40;99.90;;;;;;5097153;28;20055;-92
2023/12/06 00:19:23;;;;;;;1.97;1.20;;;5.40;99.90;;;;;;5097633;28;20020;-93
2023/12/06 00:21:48;;;;;;;2.97;1.30;;;5.40;99.90;;;;;;5096334;28;20175;-94
2023/12/06 00:24:14;;;;;;;2.77;1.07;;;5.40;99.90;;;;;;5096767;28;20085;-93
2023/12/06 00:26:42;;;;;;;2.27;1.10;;;5.40;99.90;;;;;;5097091;28;20111;-90
2023/12/06 00:29:07;;;;;;;1.40;1.00;;;5.40;99.90;;;;;;5076969;28;20036;-93
2023/12/06 00:31:33;;;;;;;2.07;1.07;;;5.40;99.90;;;;;;5086251;28;20028;-91
2023/12/06 00:33:59;;;;;;;2.50;0.90;;;5.40;99.90;;;;;;5096889;28;20043;-91
2023/12/06 00:36:24;;;;;;;1.10;1.00;;;5.40;99.90;;;;;;5095981;28;20027;-90
2023/12/06 00:38:50;;;;;;;1.00;0.80;;;5.40;99.90;;;;;;5095189;28;20051;-90
2023/12/06 00:41:15;;;;;;;3.77;1.20;;;5.50;99.90;;;;;;5096224;28;20107;-89
2023/12/06 00:43:41;;;;;;;1.03;0.93;;;5.50;99.90;;;;;;5095265;28;20476;-89
2023/12/06 00:46:06;;;;;;;2.43;0.97;;;5.50;99.90;;;;;;5095394;28;20457;-89
2023/12/06 00:48:32;;;;;;;1.20;0.83;;;5.50;99.90;;;;;;5095411;28;20051;-89
2023/12/06 00:50:58;;;;;;;1.43;0.90;;;5.50;99.90;;;;;;5090108;28;20029;-89
2023/12/06 00:53:24;;;;;;;1.07;0.90;;;5.50;99.90;;;;;;5083800;28;20077;-86
2023/12/06 00:55:49;;;;;;;3.40;1.20;;;5.50;99.90;;;;;;5094559;28;20219;-92
2023/12/06 00:58:15;;;;;;;1.97;1.20;;;5.50;99.90;;;;;;5095306;28;20059;-93
2023/12/06 01:00:41;;;;;;;1.40;1.10;;;5.50;99.90;;;;;;5094769;28;20024;-90
2023/12/06 01:03:06;;;;;;;1.07;0.83;;;5.50;99.90;;;;;;5094972;28;20587;-91
2023/12/06 01:05:32;;;;;;;1.77;1.00;;;5.50;99.90;;;;;;5095473;28;20024;-89
2023/12/06 01:07:57;;;;;;;2.27;1.23;;;5.50;99.90;;;;;;5096437;28;20461;-91
2023/12/06 01:10:23;;;;;;;1.30;0.90;;;5.50;99.90;;;;;;5095300;28;20024;-92
2023/12/06 01:12:49;;;;;;;1.47;1.10;;;5.60;99.90;;;;;;5094774;28;20024;-90
2023/12/06 01:15:14;;;;;;;3.70;1.20;;;5.60;99.90;;;;;;5095217;28;20027;-92
2023/12/06 01:17:40;;;;;;;1.83;1.00;;;5.60;99.90;;;;;;5094903;28;20047;-91
2023/12/06 01:20:06;;;;;;;3.97;1.40;;;5.60;99.90;;;;;;5095126;28;20028;-93
2023/12/06 01:22:32;;;;;;;1.33;1.03;;;5.60;99.90;;;;;;5095267;28;20023;-91
2023/12/06 01:24:58;;;;;;;2.27;1.00;;;5.60;99.90;;;;;;5095825;28;20377;-92
2023/12/06 01:27:23;;;;;;;1.37;1.10;;;5.50;99.90;;;;;;5095062;28;20035;-94
2023/12/06 01:29:49;;;;;;;2.17;1.00;;;5.60;99.90;;;;;;5096201;28;20020;-94
2023/12/06 01:32:15;;;;;;;2.20;1.17;;;5.60;99.90;;;;;;5096810;28;20431;-94
2023/12/06 01:34:40;;;;;;;3.60;1.17;;;5.60;99.90;;;;;;5095167;28;20036;-92
2023/12/06 01:37:06;;;;;;;1.53;1.00;;;5.60;99.90;;;;;;5095931;28;20469;-94
2023/12/06 01:39:31;;;;;;;1.60;0.83;;;5.60;99.90;;;;;;5095502;28;20043;-91
2023/12/06 01:41:57;;;;;;;3.40;1.30;;;5.60;99.90;;;;;;5094655;28;20461;-90
2023/12/06 01:44:22;;;;;;;2.07;0.93;;;5.60;99.90;;;;;;5095867;28;20070;-91
2023/12/06 01:46:48;;;;;;;1.77;1.20;;;5.60;99.90;;;;;;5094033;28;20519;-93
2023/12/06 01:49:14;;;;;;;1.50;0.87;;;5.60;99.90;;;;;;5095800;28;20032;-92
2023/12/06 01:51:40;;;;;;;2.23;0.97;;;5.60;99.90;;;;;;5094439;28;20144;-92
2023/12/06 01:54:06;;;;;;;3.13;0.87;;;5.60;99.90;;;;;;5094830;28;20028;-92
2023/12/06 01:56:32;;;;;;;1.87;1.17;;;5.60;99.90;;;;;;5094671;28;20461;-90
2023/12/06 01:58:59;;;;;;;1.83;0.90;;;5.60;99.90;;;;;;5093952;28;20078;-92
2023/12/06 02:01:25;;;;;;;2.27;1.13;;;5.60;99.90;;;;;;5095581;28;20115;-92
2023/12/06 02:03:51;;;;;;;2.90;1.20;;;5.60;99.90;;;;;;5095130;28;20036;-92
2023/12/06 02:06:16;;;;;;;1.90;1.10;;;5.60;99.90;;;;;;5094465;28;20457;-92
2023/12/06 02:08:44;;;;;;;1.63;1.03;;;5.70;99.90;;;;;;5094930;28;20031;-91
2023/12/06 02:11:10;;;;;;;2.80;1.03;;;5.60;99.90;;;;;;5094407;28;20047;-92
2023/12/06 02:13:36;;;;;;;2.80;1.20;;;5.60;99.90;;;;;;5094167;28;20441;-91
2023/12/06 02:16:04;;;;;;;4.03;1.47;;;5.60;99.90;;;;;;5094557;28;20449;-92
2023/12/06 02:18:30;;;;;;;2.33;1.53;;;5.70;99.90;;;;;;5093789;28;20020;-92
2023/12/06 02:20:57;;;;;;;1.77;1.10;;;5.60;99.90;;;;;;5094163;28;20088;-93
2023/12/06 02:23:29;;;;;;;2.57;1.17;;;5.60;99.90;;;;;;5094243;28;20469;-92
2023/12/06 02:25:55;;;;;;;1.92;1.10;;;5.60;99.90;;;;;;5093859;28;20151;-92
2023/12/06 02:28:20;;;;;;;2.73;1.40;;;5.60;99.90;;;;;;5093954;28;20484;-92
2023/12/06 02:30:46;;;;;;;3.43;1.30;;;5.60;99.90;;;;;;5093538;28;20031;-92
2023/12/06 02:33:11;;;;;;;2.50;1.13;;;5.60;99.90;;;;;;5094005;28;20496;-91
2023/12/06 02:35:45;;;;;;;2.30;1.20;;;5.70;99.90;;;;;;5093371;28;20085;-89
2023/12/06 02:38:13;;;;;;;3.60;1.40;;;5.70;99.90;;;;;;5094011;28;20479;-92
2023/12/06 02:40:40;;;;;;;4.87;1.60;;;5.70;99.90;;;;;;5094334;28;20043;-92
2023/12/06 02:43:06;;;;;;;3.60;1.57;;;5.70;99.90;;;;;;5094868;28;20032;-91
2023/12/06 02:45:33;;;;;;;3.00;1.63;;;5.70;99.90;;;;;;5095071;28;20143;-91
2023/12/06 02:47:58;;;;;;;6.60;1.60;;;5.60;99.90;;;;;;5093132;28;20078;-91
2023/12/06 02:50:24;;;;;;;4.70;1.73;;;5.60;99.90;;;;;;5093631;28;20381;-91
2023/12/06 02:52:49;;;;;;;5.83;1.70;;;5.60;99.90;;;;;;5094299;28;20024;-90
2023/12/06 02:55:15;;;;;;;2.30;1.60;;;5.60;99.90;;;;;;5093714;28;20457;-91
2023/12/06 02:57:41;;;;;;;5.27;1.60;;;5.60;99.90;;;;;;5092572;28;20112;-91
2023/12/06 03:00:07;;;;;;;2.30;1.50;;;5.60;99.90;;;;;;5094263;28;20456;-91
2023/12/06 03:02:33;;;;;;;4.87;1.83;;;5.60;99.90;;;;;;5093487;28;20028;-93
2023/12/06 03:04:58;;;;;;;3.23;1.50;;;5.60;99.90;;;;;;5093986;28;20074;-93
2023/12/06 03:07:24;;;;;;;2.90;1.40;;;5.60;99.90;;;;;;5094376;28;20074;-93
2023/12/06 03:09:49;;;;;;;3.93;1.50;;;5.60;99.90;;;;;;5094038;28;20024;-92
2023/12/06 03:12:15;;;;;;;4.60;1.70;;;5.60;99.90;;;;;;5094158;28;20021;-91
2023/12/06 03:14:41;;;;;;;6.93;1.40;;;5.60;99.90;;;;;;5093091;28;20032;-93
2023/12/06 03:17:06;;;;;;;5.40;1.43;;;5.60;99.90;;;;;;5093470;28;20082;-93
2023/12/06 03:19:32;;;;;;;3.53;1.70;;;5.60;99.90;;;;;;5093346;28;20024;-93
2023/12/06 03:21:57;;;;;;;2.30;1.30;;;5.50;99.90;;;;;;5092823;28;20024;-93
2023/12/06 03:24:23;;;;;;;1.83;1.37;;;5.60;99.90;;;;;;5093193;28;20056;-92
2023/12/06 03:26:48;;;;;;;2.83;1.43;;;5.60;99.90;;;;;;5092806;28;20024;-90
2023/12/06 03:29:14;;;;;;;1.97;1.43;;;5.60;99.90;;;;;;5093298;28;20055;-94
2023/12/06 03:31:40;;;;;;;2.50;1.33;;;5.60;99.90;;;;;;5093440;28;20020;-93
2023/12/06 03:34:05;;;;;;;4.73;1.67;;;5.60;99.90;;;;;;5093425;28;20042;-93
2023/12/06 03:36:31;;;;;;;1.83;1.30;;;5.60;99.90;;;;;;5093737;28;20084;-94
2023/12/06 03:38:57;;;;;;;3.70;1.50;;;5.60;99.90;;;;;;5093134;28;20051;-94
2023/12/06 03:41:22;;;;;;;3.90;1.53;;;5.60;99.90;;;;;;5093339;28;20032;-93
2023/12/06 03:43:48;;;;;;;3.70;1.50;;;5.60;99.90;;;;;;5094177;28;20028;-92
2023/12/06 03:46:13;;;;;;;4.43;1.30;;;5.60;99.90;;;;;;5092992;28;20040;-92
2023/12/06 03:48:39;;;;;;;4.10;1.53;;;5.60;99.90;;;;;;5092694;28;20376;-91
2023/12/06 03:51:05;;;;;;;3.03;1.53;;;5.60;99.90;;;;;;5092984;28;20020;-88
2023/12/06 03:53:30;;;;;;;2.80;1.20;;;5.60;99.90;;;;;;5093170;28;20032;-88
2023/12/06 03:55:56;;;;;;;1.97;1.60;;;5.60;99.90;;;;;;5092424;28;20020;-88
2023/12/06 03:58:22;;;;;;;2.33;1.50;;;5.60;99.90;;;;;;5092847;28;20035;-88
2023/12/06 04:00:48;;;;;;;3.73;1.40;;;5.60;99.90;;;;;;5093748;28;20088;-88
2023/12/06 04:03:14;;;;;;;6.37;1.60;;;5.60;99.90;;;;;;5092796;28;20575;-88
2023/12/06 04:05:43;;;;;;;3.13;1.40;;;5.60;99.90;;;;;;5092426;28;20033;-88
2023/12/06 04:08:10;;;;;;;2.53;1.30;;;5.70;99.90;;;;;;5093791;28;20020;-88
2023/12/06 04:10:36;;;;;;;4.07;1.50;;;5.60;99.90;;;;;;5092828;28;20024;-88
2023/12/06 04:13:02;;;;;;;2.87;1.73;;;5.70;99.90;;;;;;5092108;28;20028;-88
2023/12/06 04:15:29;;;;;;;4.20;1.40;;;5.70;99.90;;;;;;5093698;28;20457;-88
2023/12/06 04:17:55;;;;;;;2.27;1.47;;;5.70;99.90;;;;;;5093442;28;20024;-88
2023/12/06 04:20:20;;;;;;;3.03;1.47;;;5.60;99.90;;;;;;5093622;28;20020;-89
2023/12/06 04:22:46;;;;;;;5.10;1.40;;;5.70;99.90;;;;;;5096307;28;20457;-88
2023/12/06 04:25:15;;;;;;;2.47;1.33;;;5.60;99.90;;;;;;5097387;28;20032;-88
2023/12/06 04:27:41;;;;;;;2.47;1.40;;;5.60;99.90;;;;;;5095984;28;20036;-88
2023/12/06 04:30:11;;;;;;;3.33;1.20;;;5.60;99.90;;;;;;5097321;28;20085;-88
2023/12/06 04:32:37;;;;;;;2.73;1.30;;;5.60;99.90;;;;;;5096100;28;20035;-89
2023/12/06 04:35:03;;;;;;;3.17;1.70;;;5.60;99.90;;;;;;5096832;28;20077;-88
2023/12/06 04:37:28;;;;;;;3.07;1.67;;;5.60;99.90;;;;;;5097370;28;20069;-89
2023/12/06 04:39:54;;;;;;;1.83;1.30;;;5.60;99.90;;;;;;5095576;28;20127;-88
2023/12/06 04:42:20;;;;;;;3.03;1.53;;;5.60;99.90;;;;;;5086058;28;20039;-88
2023/12/06 04:44:46;;;;;;;3.97;1.70;;;5.60;99.90;;;;;;5076623;28;20454;-88
2023/12/06 04:47:11;;;;;;;3.53;1.60;;;5.60;99.90;;;;;;5077293;28;20036;-89
2023/12/06 04:49:37;;;;;;;6.73;2.10;;;5.60;99.90;;;;;;5076747;28;20064;-89
2023/12/06 04:52:03;;;;;;;5.97;1.80;;;5.60;99.90;;;;;;5076316;28;20024;-88
2023/12/06 04:54:32;;;;;;;3.40;1.70;;;5.60;99.90;;;;;;5075828;28;20103;-89
2023/12/06 04:56:58;;;;;;;2.83;1.60;;;5.60;99.90;;;;;;5075963;28;20525;-88
2023/12/06 04:59:24;;;;;;;4.63;1.70;;;5.60;99.90;;;;;;5075609;28;20029;-88
2023/12/06 05:01:50;;;;;;;2.27;1.40;;;5.60;99.90;;;;;;5075193;28;20081;-89
2023/12/06 05:04:15;;;;;;;4.93;1.60;;;5.70;99.90;;;;;;5075724;28;20469;-88
2023/12/06 05:06:41;;;;;;;1.77;1.30;;;5.70;99.90;;;;;;5075351;28;20484;-88
2023/12/06 05:09:10;;;;;;;3.80;1.60;;;5.70;99.90;;;;;;5075957;28;20024;-89
2023/12/06 05:11:36;;;;;;;3.33;1.40;;;5.70;99.90;;;;;;5076404;28;20025;-89
2023/12/06 05:14:02;;;;;;;4.00;1.57;;;5.70;99.90;;;;;;5074960;28;20035;-88
2023/12/06 05:16:28;;;;;;;3.73;1.53;;;5.70;99.90;;;;;;5075375;28;20063;-87
2023/12/06 05:18:54;;;;;;;2.80;1.30;;;5.70;99.90;;;;;;5074811;28;20033;-89
2023/12/06 05:21:19;;;;;;;4.47;1.80;;;5.70;99.90;;;;;;5075137;28;20420;-88
2023/12/06 05:23:45;;;;;;;3.47;1.50;;;5.70;99.90;;;;;;5075626;28;20036;-92
2023/12/06 05:26:10;;;;;;;3.30;1.53;;;5.70;99.90;;;;;;5075306;28;20397;-92
2023/12/06 05:28:36;;;;;;;2.90;1.80;;;5.70;99.90;;;;;;5075041;28;20033;-94
2023/12/06 05:31:02;;;;;;;5.57;1.80;;;5.70;99.90;;;;;;5074636;28;20028;-93
2023/12/06 05:33:28;;;;;;;2.77;1.63;;;5.70;99.90;;;;;;5073855;28;20036;-94
2023/12/06 05:35:55;;;;;;;2.73;1.47;;;5.70;99.90;;;;;;5075184;28;20024;-93
2023/12/06 05:38:21;;;;;;;2.70;1.70;;;5.70;99.90;;;;;;5076111;28;20027;-92
2023/12/06 05:40:47;;;;;;;3.17;1.57;;;5.70;99.90;;;;;;5074345;28;20048;-92
2023/12/06 05:43:13;;;;;;;3.57;1.50;;;5.70;99.90;;;;;;5075712;28;20059;-93
2023/12/06 05:45:38;;;;;;;2.73;1.40;;;5.70;99.90;;;;;;5074726;28;20079;-91
2023/12/06 05:48:04;;;;;;;4.37;1.90;;;5.70;99.90;;;;;;5074216;28;20207;-90
2023/12/06 05:50:30;;;;;;;1.70;1.50;;;5.70;99.90;;;;;;5074724;28;20025;-92
2023/12/06 05:52:57;;;;;;;3.07;1.60;;;5.70;99.90;;;;;;5074257;28;20123;-92
2023/12/06 05:55:23;;;;;;;3.67;2.03;;;5.70;99.90;;;;;;5075425;28;20024;-91
2023/12/06 05:57:49;;;;;;;2.87;1.77;;;5.70;99.90;;;;;;5074343;28;20039;-93
2023/12/06 06:00:17;;;;;;;4.20;2.30;;;5.70;99.90;;;;;;5075712;28;20020;-94
2023/12/06 06:02:45;;;;;;;3.97;2.10;;;5.70;99.90;;;;;;5075565;28;20020;-93
2023/12/06 06:05:11;;;;;;;3.90;2.00;;;5.70;99.90;;;;;;5074531;28;20446;-92
2023/12/06 06:07:37;;;;;;;3.60;2.27;;;5.80;99.90;;;;;;5075402;28;20031;-92
2023/12/06 06:10:03;;;;;;;5.13;2.40;;;5.70;99.90;;;;;;5073936;28;20032;-93
2023/12/06 06:12:29;;;;;;;3.67;2.50;;;5.70;99.90;;;;;;5074740;28;20456;-93
2023/12/06 06:14:55;;;;;;;6.33;2.80;;;5.80;99.90;;;;;;5075129;28;20465;-92
2023/12/06 06:17:21;;;;;;;4.53;2.63;;;5.80;99.90;;;;;;5074903;28;20032;-93
2023/12/06 06:19:47;;;;;;;3.97;2.27;;;5.80;99.90;;;;;;5073792;28;20020;-90
2023/12/06 06:22:12;;;;;;;4.97;2.40;;;5.80;99.90;;;;;;5074197;28;20091;-91
2023/12/06 06:24:38;;;;;;;5.73;2.67;;;5.80;99.90;;;;;;5075146;28;20105;-91
2023/12/06 06:27:04;;;;;;;4.00;2.70;;;5.80;99.90;;;;;;5073524;28;20465;-89
2023/12/06 06:29:29;;;;;;;8.40;2.93;;;5.80;99.90;;;;;;5074455;28;20025;-90
2023/12/06 06:31:55;;;;;;;5.23;2.87;;;5.80;99.90;;;;;;5089653;28;20070;-89
2023/12/06 06:34:20;;;;;;;4.50;2.80;;;5.80;99.90;;;;;;5092728;28;20024;-89
2023/12/06 06:36:46;;;;;;;6.27;3.50;;;5.80;99.90;;;;;;5093348;28;20077;-90
2023/12/06 06:39:12;;;;;;;7.50;3.20;;;5.80;99.90;;;;;;5093089;28;20134;-92
2023/12/06 06:41:38;;;;;;;5.33;3.20;;;5.70;99.90;;;;;;5094826;28;20059;-91
2023/12/06 06:44:04;;;;;;;5.90;3.40;;;5.70;99.90;;;;;;5093104;28;20464;-92
2023/12/06 06:46:30;;;;;;;5.07;2.73;;;5.70;99.90;;;;;;5093952;28;20096;-91
2023/12/06 06:48:56;;;;;;;5.73;3.30;;;5.80;99.90;;;;;;5093532;28;20120;-90
2023/12/06 06:51:31;;;;;;;6.60;3.27;;;5.70;99.90;;;;;;5094450;28;20024;-91
2023/12/06 06:53:58;;;;;;;6.27;3.43;;;5.70;99.90;;;;;;5093361;28;20032;-88
2023/12/06 06:56:23;;;;;;;6.57;3.37;;;5.70;99.90;;;;;;5093466;28;20069;-89
2023/12/06 06:58:49;;;;;;;6.67;3.87;;;5.70;99.90;;;;;;5093135;28;20115;-92
2023/12/06 07:01:14;;;;;;;7.13;3.50;;;5.70;99.90;;;;;;5093360;28;20039;-88
2023/12/06 07:03:40;;;;;;;7.87;3.67;;;5.70;99.90;;;;;;5093719;28;20031;-88
2023/12/06 07:06:06;;;;;;;5.90;3.70;;;5.70;99.90;;;;;;5092972;28;20056;-88
2023/12/06 07:08:32;;;;;;;7.03;4.00;;;5.70;99.90;;;;;;5094542;28;20109;-90
2023/12/06 07:10:57;;;;;;;5.97;4.10;;;5.70;99.90;;;;;;5093958;28;20024;-90
2023/12/06 07:13:23;;;;;;;8.47;4.07;;;5.60;99.90;;;;;;5093689;28;20206;-86
2023/12/06 07:15:48;;;;;;;8.57;4.03;;;5.60;99.90;;;;;;5094324;28;20639;-86
2023/12/06 07:18:14;;;;;;;9.23;4.70;;;5.70;99.90;;;;;;5092938;28;20031;-86
2023/12/06 07:20:40;;;;;;;11.13;4.77;;;5.60;99.90;;;;;;5094265;28;20115;-86
2023/12/06 07:23:06;;;;;;;8.90;4.40;;;5.60;99.90;;;;;;5092616;28;20050;-86
2023/12/06 07:25:32;;;;;;;9.67;4.70;;;5.60;99.90;;;;;;5093210;28;20057;-87
2023/12/06 07:27:57;;;;;;;7.97;4.30;;;5.60;99.90;;;;;;5092555;28;20032;-87
2023/12/06 07:30:23;;;;;;;7.87;4.10;;;5.60;99.90;;;;;;5093236;28;20039;-87
2023/12/06 07:32:49;;;;;;;9.70;5.27;;;5.70;99.90;;;;;;5093014;28;20028;-86
2023/12/06 07:35:14;;;;;;;8.63;5.13;;;5.60;99.90;;;;;;5093875;28;20107;-84
2023/12/06 07:37:41;;;;;;;7.83;4.77;;;5.60;99.90;;;;;;5093373;28;20032;-84
2023/12/06 07:40:10;;;;;;;7.10;4.23;;;5.60;99.90;;;;;;5092341;28;20044;-84
2023/12/06 07:42:36;;;;;;;8.57;4.70;;;5.60;99.90;;;;;;5093908;28;20401;-86
2023/12/06 07:45:02;;;;;;;7.57;4.47;;;5.60;99.90;;;;;;5092448;28;20046;-86
2023/12/06 07:47:29;;;;;;;8.97;4.30;;;5.60;99.90;;;;;;5092862;28;20028;-85
2023/12/06 07:49:54;;;;;;;6.47;4.10;;;5.60;99.90;;;;;;5092714;28;20358;-85
2023/12/06 07:52:20;;;;;;;6.37;3.80;;;5.60;99.90;;;;;;5092734;28;20054;-85
2023/12/06 07:54:46;;;;;;;6.50;3.83;;;5.60;99.90;;;;;;5092929;28;20028;-86
2023/12/06 07:57:12;;;;;;;9.30;4.73;;;5.60;99.90;;;;;;5096338;28;20028;-85
2023/12/06 07:59:39;;;;;;;9.10;4.70;;;5.60;99.90;;;;;;5097222;28;20020;-85
2023/12/06 08:02:04;;;;;;;7.63;4.37;;;5.50;99.90;;;;;;5096655;28;20028;-86
2023/12/06 08:04:30;;;;;;;7.97;4.10;;;5.50;99.90;;;;;;5096773;28;20039;-85
2023/12/06 08:06:55;;;;;;;7.20;4.13;;;5.50;99.90;;;;;;5096253;28;20028;-87
2023/12/06 08:09:21;;;;;;;6.93;4.10;;;5.60;99.90;;;;;;5097930;28;20449;-86
2023/12/06 08:11:47;;;;;;;8.30;4.43;;;5.60;99.90;;;;;;5096576;28;20028;-94
2023/12/06 08:14:14;;;;;;;8.07;4.40;;;5.60;99.90;;;;;;5096331;28;20067;-90
2023/12/06 08:16:39;;;;;;;7.73;4.27;;;5.60;99.90;;;;;;5096412;28;20035;-89
2023/12/06 08:19:05;;;;;;;7.80;3.90;;;5.60;99.90;;;;;;5096353;28;20056;-89
2023/12/06 08:21:30;;;;;;;8.97;4.33;;;5.60;99.90;;;;;;5096921;28;20389;-89
2023/12/06 08:23:56;;;;;;;7.67;4.27;;;5.60;99.90;;;;;;5096338;28;20115;-88
2023/12/06 08:26:21;;;;;;;7.13;4.20;;;5.60;99.90;;;;;;5096623;28;20036;-87
2023/12/06 08:28:47;;;;;;;8.23;4.53;;;5.60;99.90;;;;;;5097392;28;20099;-86
2023/12/06 08:31:13;;;;;;;8.83;4.60;;;5.60;99.90;;;;;;5097142;28;20186;-86
2023/12/06 08:33:38;;;;;;;9.60;5.27;;;5.60;99.90;;;;;;5096386;28;20036;-84
2023/12/06 08:36:04;;;;;;;11.87;6.13;;;5.60;99.90;;;;;;5096773;28;20073;-86
2023/12/06 08:38:30;;;;;;;10.63;6.03;;;5.60;99.90;;;;;;5097313;28;20028;-92
2023/12/06 08:40:56;;;;;;;9.90;5.80;;;5.60;99.90;;;;;;5095747;28;20055;-89
2023/12/06 08:43:21;;;;;;;13.93;6.53;;;5.60;99.90;;;;;;5096077;28;20469;-90
2023/12/06 08:45:47;;;;;;;10.17;5.63;;;5.60;99.90;;;;;;5096124;28;20043;-89
2023/12/06 08:48:12;;;;;;;11.00;5.87;;;5.70;99.90;;;;;;5096004;28;20020;-89
2023/12/06 08:50:38;;;;;;;10.33;5.87;;;5.60;99.90;;;;;;5096281;28;20051;-90
2023/12/06 08:53:04;;;;;;;9.30;5.40;;;5.70;99.90;;;;;;5095479;28;20028;-89
2023/12/06 08:55:29;;;;;;;10.53;6.20;;;5.60;99.90;;;;;;5096202;28;20028;-88
2023/12/06 08:57:55;;;;;;;10.17;5.63;;;5.60;99.90;;;;;;5095574;28;20057;-88
2023/12/06 09:00:20;;;;;;;9.30;5.47;;;5.60;99.90;;;;;;5095152;28;20024;-87
2023/12/06 09:02:46;;;;;;;12.17;5.83;;;5.60;99.90;;;;;;5096586;28;20529;-86
2023/12/06 09:05:12;;;;;;;9.23;5.73;;;5.60;99.90;;;;;;5095155;28;20085;-88
2023/12/06 09:07:41;;;;;;;9.43;5.37;;;5.60;99.90;;;;;;5094907;28;20047;-88
2023/12/06 09:10:10;;;;;;;9.50;5.57;;;5.60;99.90;;;;;;5094648;28;20028;-89
2023/12/06 09:12:35;;;;;;;9.30;5.20;;;5.70;99.90;;;;;;5095187;28;20373;-88
2023/12/06 09:15:03;;;;;;;11.13;5.50;;;5.60;99.90;;;;;;5095172;28;20024;-88
2023/12/06 09:17:28;;;;;;;10.33;5.63;;;5.60;99.90;;;;;;5095681;28;20020;-90
2023/12/06 09:19:54;;;;;;;9.70;5.60;;;5.60;99.90;;;;;;5095412;28;20020;-88
2023/12/06 09:22:21;;;;;;;10.50;6.33;;;5.60;99.90;;;;;;5094993;28;20028;-90
2023/12/06 09:24:48;;;;;;;10.77;5.87;;;5.60;99.90;;;;;;5094618;28;20024;-89
2023/12/06 09:27:13;;;;;;;10.33;5.77;;;5.60;99.90;;;;;;5094791;28;20123;-90
2023/12/06 09:29:39;;;;;;;11.03;6.30;;;5.60;99.90;;;;;;5095208;28;20058;-89
2023/12/06 09:32:05;;;;;;;12.13;6.10;;;5.60;99.90;;;;;;5094619;28;20087;-90
2023/12/06 09:34:31;;;;;;;10.50;5.77;;;5.60;99.90;;;;;;5095361;28;20469;-90
2023/12/06 09:36:56;;;;;;;9.07;5.47;;;5.60;99.90;;;;;;5095418;28;20135;-89
2023/12/06 09:39:22;;;;;;;12.00;5.90;;;5.70;99.90;;;;;;5088904;28;20139;-88
2023/12/06 09:41:48;;;;;;;9.90;5.77;;;5.70;99.90;;;;;;5086317;28;20054;-85
2023/12/06 09:44:17;;;;;;;11.90;6.30;;;5.70;99.90;;;;;;5095421;28;20036;-94
2023/12/06 09:46:44;;;;;;;11.47;5.70;;;5.70;99.90;;;;;;5084696;28;20055;-93
2023/12/06 09:49:10;;;;;;;10.20;5.27;;;5.70;99.90;;;;;;5082436;28;20032;-93
2023/12/06 09:51:35;;;;;;;10.13;5.37;;;5.70;99.90;;;;;;5074495;28;20021;-92
2023/12/06 09:54:01;;;;;;;9.23;5.33;;;5.70;99.90;;;;;;5092346;28;20063;-93
2023/12/06 09:56:27;;;;;;;10.03;5.87;;;5.80;99.90;;;;;;5095462;28;20024;-94
2023/12/06 09:58:52;;;;;;;10.00;5.73;;;5.80;99.90;;;;;;5089380;28;20035;-94
2023/12/06 10:01:18;;;;;;;9.93;5.70;;;5.80;99.90;;;;;;5082318;28;20724;-90
2023/12/06 10:03:46;;;;;;;12.63;5.43;;;5.80;99.90;;;;;;5090478;28;20123;-88
2023/12/06 10:06:12;;;;;;;10.87;5.50;;;5.80;99.90;;;;;;5077918;28;20051;-88
2023/12/06 10:08:37;;;;;;;10.53;5.77;;;5.90;99.90;;;;;;5093929;28;20056;-87
2023/12/06 10:11:12;;;;;;;7.97;5.13;;;5.90;99.90;;;;;;5094363;28;20469;-87
2023/12/06 10:13:40;;;;;;;11.80;5.40;;;5.90;99.90;;;;;;5094917;28;20495;-88
2023/12/06 10:16:22;;;;;;;11.57;5.03;;;6.00;99.90;;;;;;5077405;28;20048;-90
2023/12/06 10:18:52;;;;;;;10.43;5.47;;;6.00;99.90;;;;;;5093182;28;20034;-90
2023/12/06 10:21:19;;;;;;;7.53;5.17;;;6.00;99.90;;;;;;5093213;28;20036;-90
2023/12/06 10:23:55;;;;;;;10.70;5.83;;;6.00;99.90;;;;;;5093825;28;20031;-95
2023/12/06 10:26:21;;;;;;;10.80;5.83;;;6.00;99.90;;;;;;5094874;28;20120;-94
2023/12/06 10:28:46;;;;;;;7.37;4.77;;;6.00;99.90;;;;;;5093487;28;20056;-91
2023/12/06 10:31:12;;;;;;;8.00;5.23;;;6.10;99.90;;;;;;5093210;28;20028;-92
2023/12/06 10:33:39;;;;;;;10.87;5.37;;;6.10;99.90;;;;;;5080805;28;20028;-86
2023/12/06 10:36:07;;;;;;;8.20;4.73;;;6.10;99.90;;;;;;5078007;28;20032;-92
2023/12/06 10:38:34;;;;;;;7.47;4.33;;;6.00;99.90;;;;;;5093423;28;20028;-88
2023/12/06 10:41:02;;;;;;;9.90;4.67;;;6.00;99.90;;;;;;5092349;28;20084;-88
2023/12/06 10:43:29;;;;;;;10.80;5.70;;;6.00;99.90;;;;;;5093424;28;20035;-90
2023/12/06 10:45:56;;;;;;;8.07;5.40;;;6.00;99.90;;;;;;5075998;28;20032;-91
2023/12/06 10:48:23;;;;;;;7.77;4.57;;;6.00;99.90;;;;;;5088043;28;20020;-88
2023/12/06 10:50:50;;;;;;;9.50;5.40;;;6.00;99.90;;;;;;5091992;28;20540;-89
2023/12/06 10:53:17;;;;;;;10.27;5.00;;;6.00;99.90;;;;;;5092887;28;20027;-89
2023/12/06 10:55:44;;;;;;;8.53;5.13;;;6.00;99.90;;;;;;5077079;28;20054;-94
2023/12/06 10:58:11;;;;;;;10.17;5.40;;;6.00;99.90;;;;;;5089187;28;20017;-88
2023/12/06 11:00:37;;;;;;;10.07;5.63;;;6.00;99.90;;;;;;5080741;28;20034;-92
2023/12/06 11:03:03;;;;;;;9.03;5.10;;;6.00;99.90;;;;;;5092391;28;20032;-91
2023/12/06 11:05:38;;;;;;;8.73;5.43;;;6.00;99.90;;;;;;5079716;28;20032;-91
2023/12/06 11:08:27;;;;;;;12.40;5.43;;;6.00;99.90;;;;;;5089082;28;20028;-91
2023/12/06 11:11:10;;;;;;;9.57;5.63;;;6.00;99.90;;;;;;5082803;28;20028;-89
2023/12/06 11:13:54;;;;;;;10.30;5.57;;;6.00;99.90;;;;;;5092815;28;20031;-94
2023/12/06 11:16:32;;;;;;;9.40;5.47;;;6.00;99.90;;;;;;5077305;28;20496;-92
2023/12/06 11:18:59;;;;;;;7.33;4.87;;;6.10;99.90;;;;;;5092735;28;20028;-95
2023/12/06 11:21:25;;;;;;;8.50;4.43;;;6.10;99.90;;;;;;5080530;28;20024;-91
2023/12/06 11:23:51;;;;;;;11.03;5.67;;;6.10;99.90;;;;;;5089407;28;20496;-92
2023/12/06 11:26:17;;;;;;;8.93;5.37;;;6.10;99.90;;;;;;5077356;28;20047;-87
2023/12/06 11:28:43;;;;;;;9.17;5.60;;;6.20;99.90;;;;;;5093128;28;20032;-86
2023/12/06 11:31:14;;;;;;;7.87;4.50;;;6.20;99.90;;;;;;5091514;28;20469;-87
2023/12/06 11:33:40;;;;;;;7.63;4.38;;;6.20;99.90;;;;;;5092178;28;20028;-88
2023/12/06 11:36:15;;;;;;;7.30;4.60;;;6.30;99.90;;;;;;5092644;28;20050;-85
2023/12/06 11:38:42;;;;;;;9.07;4.13;;;6.30;99.90;;;;;;5094187;28;20056;-86
2023/12/06 11:41:14;;;;;;;8.87;4.43;;;6.30;99.90;;;;;;5091703;28;20066;-90
2023/12/06 11:43:50;;;;;;;7.93;5.07;;;6.30;99.90;;;;;;5092182;28;20082;-89
2023/12/06 11:46:17;;;;;;;9.47;4.87;;;6.30;99.90;;;;;;5092797;28;20066;-88
2023/12/06 11:48:48;;;;;;;8.77;5.23;;;6.30;99.90;;;;;;5091888;28;20028;-86
2023/12/06 11:51:21;;;;;;;8.37;5.33;;;6.30;99.90;;;;;;5090378;28;20020;-86
2023/12/06 11:53:49;;;;;;;8.60;5.30;;;6.40;99.90;;;;;;5092382;28;20051;-87
2023/12/06 11:56:25;;;;;;;8.50;5.63;;;6.40;99.90;;;;;;5092101;28;20024;-91
2023/12/06 11:58:52;;;;;;;10.60;5.60;;;6.50;99.90;;;;;;5093771;28;20042;-90
2023/12/06 12:01:19;;;;;;;9.57;5.30;;;6.50;99.90;;;;;;5079474;28;20028;-91
2023/12/06 12:03:49;;;;;;;11.48;5.90;;;6.40;99.90;;;;;;5088877;28;20079;-90
2023/12/06 12:06:15;;;;;;;11.03;5.83;;;6.50;99.90;;;;;;5092442;28;20077;-90
2023/12/06 12:08:45;;;;;;;11.73;6.07;;;6.40;99.90;;;;;;5091250;28;20028;-84
2023/12/06 12:11:11;;;;;;;9.53;5.83;;;6.40;99.90;;;;;;5092725;28;20028;-86
2023/12/06 12:13:38;;;;;;;10.60;5.93;;;6.50;99.90;;;;;;5091911;28;20461;-93
2023/12/06 12:16:05;;;;;;;8.88;5.72;;;6.50;99.90;;;;;;5089522;28;20468;-93
2023/12/06 12:18:31;;;;;;;10.03;5.63;;;6.50;99.90;;;;;;5078281;28;20028;-94
2023/12/06 12:20:58;;;;;;;9.27;5.53;;;6.60;99.90;;;;;;5082496;28;20017;-90
2023/12/06 12:23:28;;;;;;;10.07;5.60;;;6.50;99.90;;;;;;5084976;28;20392;-93
2023/12/06 12:25:54;;;;;;;11.23;5.60;;;6.60;99.90;;;;;;5075779;28;20112;-92
2023/12/06 12:28:21;;;;;;;10.67;5.60;;;6.60;99.90;;;;;;5087481;28;20050;-88
2023/12/06 12:30:55;;;;;;;13.37;5.80;;;6.60;99.90;;;;;;5080370;28;20060;-88
2023/12/06 12:33:21;;;;;;;12.50;5.50;;;6.60;99.90;;;;;;5079326;28;20457;-87
2023/12/06 12:35:47;;;;;;;12.52;5.63;;;6.60;99.90;;;;;;5075462;28;20024;-89
2023/12/06 12:38:15;;;;;;;11.30;5.60;;;6.60;99.90;;;;;;5091550;28;20080;-88
2023/12/06 12:40:41;;;;;;;9.68;5.35;;;6.50;99.90;;;;;;5091381;28;20050;-87
2023/12/06 12:43:07;;;;;;;9.37;5.90;;;6.50;99.90;;;;;;5094522;28;20077;-88
2023/12/06 12:45:33;;;;;;;10.10;5.83;;;6.50;99.90;;;;;;5095417;28;20040;-89
2023/12/06 12:48:00;;;;;;;11.68;5.63;;;6.50;99.90;;;;;;5078881;28;20476;-90
2023/12/06 12:50:25;;;;;;;9.87;5.70;;;6.50;99.90;;;;;;5090178;28;20031;-85
2023/12/06 12:52:55;;;;;;;10.40;5.63;;;6.50;99.90;;;;;;5086213;28;20024;-88